Time;durP1;ratioP1;P1;durP2;ratioP2;P2;SDS_P1;SDS_P2;PMS_P1;PMS_P2;Temp;Humidity;BMP_temperature;BMP_pressure;BME280_temperature;BME280_humidity;BME280_pressure;Samples;Min_cycle;Max_cycle;Signal;HPM_P1;HPM_P2
2023/01/07 00:01:27;;;;;;;8.28;5.20;;;;;;;-7.36;62.02;101695.95;1825038;75;21242;-89
2023/01/07 00:03:54;;;;;;;7.45;5.37;;;;;;;-7.38;62.14;101696.31;1848470;75;21182;-89
2023/01/07 00:06:25;;;;;;;9.28;4.53;;;;;;;-7.36;62.33;101713.78;1844789;75;20946;-89
2023/01/07 00:08:53;;;;;;;11.97;5.35;;;;;;;-7.39;62.64;101721.31;1815945;75;20975;-90
2023/01/07 00:11:27;;;;;;;10.82;4.90;;;;;;;-7.39;62.82;101725.55;1816616;77;20927;-89
2023/01/07 00:13:56;;;;;;;12.45;5.03;;;;;;;-7.39;63.06;101728.95;1842731;74;26159;-90
2023/01/07 00:16:27;;;;;;;8.90;6.08;;;;;;;-7.35;63.02;101738.43;1850722;74;21230;-89
2023/01/07 00:18:57;;;;;;;10.65;5.55;;;;;;;-7.36;62.82;101730.73;1846562;75;20905;-88
2023/01/07 00:21:25;;;;;;;13.62;7.22;;;;;;;-7.44;62.77;101725.41;1817887;76;20933;-89
2023/01/07 00:23:58;;;;;;;9.83;4.90;;;;;;;-7.45;63.25;101731.72;1849535;75;20929;-91
2023/01/07 00:26:29;;;;;;;11.25;6.62;;;;;;;-7.48;63.11;101738.00;1874175;75;21033;-90
2023/01/07 00:29:00;;;;;;;8.13;4.75;;;;;;;-7.51;63.44;101752.78;1883055;75;21129;-89
2023/01/07 00:31:33;;;;;;;9.05;5.87;;;;;;;-7.52;63.50;101745.94;1858104;75;20869;-90
2023/01/07 00:36:38;;;;;;;11.18;5.95;;;;;;;-7.55;63.82;101737.80;1852396;75;21022;-89
2023/01/07 00:39:18;;;;;;;10.88;5.65;;;;;;;-7.47;63.44;101745.67;1870357;75;21333;-90
2023/01/07 00:44:31;;;;;;;9.55;4.58;;;;;;;-7.57;62.95;101756.40;1883251;75;20942;-85
2023/01/07 00:47:00;;;;;;;9.30;5.30;;;;;;;-7.68;62.98;101764.95;1834741;75;21046;-88
2023/01/07 00:49:26;;;;;;;14.05;5.42;;;;;;;-7.71;63.51;101773.37;1854241;75;21095;-90
2023/01/07 00:51:53;;;;;;;10.93;5.55;;;;;;;-7.73;63.54;101779.23;1856978;76;20956;-86
2023/01/07 00:54:22;;;;;;;11.80;6.08;;;;;;;-7.79;63.37;101780.29;1849550;75;21089;-90
2023/01/07 00:56:49;;;;;;;8.65;5.37;;;;;;;-7.86;62.94;101778.36;1858098;75;21257;-90
2023/01/07 00:59:17;;;;;;;7.75;4.67;;;;;;;-7.98;62.84;101777.13;1852268;76;21323;-91
2023/01/07 01:01:44;;;;;;;10.82;5.97;;;;;;;-8.05;62.69;101779.39;1847024;74;20865;-88
2023/01/07 01:04:10;;;;;;;9.80;5.05;;;;;;;-8.12;62.81;101779.58;1849148;75;21011;-90
2023/01/07 01:06:38;;;;;;;10.03;6.42;;;;;;;-8.18;62.70;101782.80;1857772;76;21314;-91
2023/01/07 01:09:07;;;;;;;8.85;6.03;;;;;;;-8.27;63.09;101777.77;1872441;76;20867;-91
2023/01/07 01:11:33;;;;;;;11.93;6.70;;;;;;;-8.27;63.73;101785.02;1878515;75;21045;-89
2023/01/07 01:16:27;;;;;;;9.88;5.62;;;;;;;-8.24;63.81;101785.11;1845821;76;20939;-89
2023/01/07 01:18:55;;;;;;;10.72;5.92;;;;;;;-8.17;64.11;101784.92;1846410;75;21040;-91
2023/01/07 01:21:23;;;;;;;10.35;5.83;;;;;;;-8.15;64.42;101790.94;1854969;74;21013;-90
2023/01/07 01:23:50;;;;;;;9.08;5.33;;;;;;;-8.15;64.01;101796.03;1812939;76;20938;-87
2023/01/07 01:26:16;;;;;;;10.00;5.53;;;;;;;-8.15;64.07;101796.03;1861225;75;20943;-88
2023/01/07 01:28:44;;;;;;;9.75;5.58;;;;;;;-8.09;64.15;101800.06;1851416;75;21014;-90
2023/01/07 01:31:11;;;;;;;8.70;5.25;;;;;;;-8.07;63.73;101795.90;1852683;74;21059;-89
2023/01/07 01:33:42;;;;;;;11.50;6.47;;;;;;;-8.10;63.33;101800.00;1834648;76;20887;-90
2023/01/07 01:36:11;;;;;;;8.18;6.00;;;;;;;-8.13;63.58;101803.31;1841934;74;21401;-90
2023/01/07 01:38:40;;;;;;;11.55;6.67;;;;;;;-8.16;63.55;101800.64;1848214;75;21067;-92
2023/01/07 01:41:07;;;;;;;8.88;5.25;;;;;;;-8.19;63.61;101800.13;1848771;74;20996;-89
2023/01/07 01:43:39;;;;;;;10.88;5.33;;;;;;;-8.18;63.76;101806.08;1862260;76;21192;-90
2023/01/07 01:46:31;;;;;;;11.25;6.10;;;;;;;-8.20;63.71;101809.00;1857675;75;20948;-90
2023/01/07 01:49:06;;;;;;;10.93;5.45;;;;;;;-8.25;63.90;101804.98;1825987;76;20912;-90
2023/01/07 01:51:37;;;;;;;10.60;6.83;;;;;;;-8.28;64.03;101809.98;1855849;74;21035;-89
2023/01/07 01:54:07;;;;;;;12.33;5.58;;;;;;;-8.26;64.43;101810.05;1875690;75;21037;-89
2023/01/07 01:56:36;;;;;;;9.18;5.12;;;;;;;-8.23;64.61;101824.13;1844081;75;21164;-90
2023/01/07 01:59:07;;;;;;;10.23;5.80;;;;;;;-8.28;64.15;101821.43;1871360;75;20891;-91
2023/01/07 02:01:36;;;;;;;8.85;5.58;;;;;;;-8.33;64.30;101819.13;1877439;75;20946;-90
2023/01/07 02:04:10;;;;;;;12.88;5.92;;;;;;;-8.34;64.65;101817.00;1875729;75;20969;-89
2023/01/07 02:06:40;;;;;;;9.60;5.12;;;;;;;-8.32;64.64;101821.27;1873618;75;20997;-88
2023/01/07 02:09:07;;;;;;;12.85;6.22;;;;;;;-8.29;64.26;101815.89;1876382;75;21098;-90
2023/01/07 02:12:08;;;;;;;10.25;5.33;;;;;;;-8.34;64.19;101818.27;1837451;76;20954;-89
2023/01/07 02:15:10;;;;;;;13.10;6.62;;;;;;;-8.35;64.33;101822.02;1882896;75;20951;-89
2023/01/07 02:18:22;;;;;;;8.75;5.40;;;;;;;-8.38;64.66;101826.59;1878768;75;20848;-90
2023/01/07 02:21:00;;;;;;;17.12;5.37;;;;;;;-8.38;64.33;101838.42;1879369;74;20906;-89
2023/01/07 02:26:44;;;;;;;10.18;5.72;;;;;;;-8.51;63.90;101837.16;1831508;76;20908;-89
2023/01/07 02:29:17;;;;;;;9.25;5.15;;;;;;;-8.53;64.00;101839.19;1843219;77;20967;-89
2023/01/07 02:32:00;;;;;;;9.53;5.22;;;;;;;-8.51;64.00;101837.54;1824076;76;20885;-90
2023/01/07 02:35:44;;;;;;;11.38;4.53;;;;;;;-8.43;64.25;101837.02;1817074;79;22742;-90
2023/01/07 02:38:39;;;;;;;9.68;5.53;;;;;;;-8.47;63.97;101836.85;1755119;81;21377;-90
2023/01/07 02:41:27;;;;;;;9.90;5.53;;;;;;;-8.47;63.24;101842.83;1728530;82;21584;-90
2023/01/07 02:44:05;;;;;;;8.35;4.53;;;;;;;-8.59;62.77;101839.40;1754201;82;21058;-88
2023/01/07 02:47:03;;;;;;;8.25;4.15;;;;;;;-8.72;63.02;101842.28;1728210;82;21401;-88
2023/01/07 02:49:30;;;;;;;6.08;4.30;;;;;;;-8.71;63.12;101839.33;1753915;82;21362;-88
2023/01/07 02:52:17;;;;;;;7.65;4.35;;;;;;;-8.70;62.75;101840.67;1753395;82;20979;-89
2023/01/07 02:54:47;;;;;;;10.32;5.87;;;;;;;-8.74;62.77;101848.98;1752940;82;21810;-89
2023/01/07 02:57:50;;;;;;;7.10;4.60;;;;;;;-8.80;62.72;101850.89;1753118;82;20983;-91
2023/01/07 03:00:58;;;;;;;7.65;4.28;;;;;;;-8.83;62.44;101843.55;1751826;81;21011;-89
2023/01/07 03:04:20;;;;;;;9.88;5.90;;;;;;;-8.91;62.51;101852.16;1752667;82;21027;-91
2023/01/07 03:07:01;;;;;;;10.68;4.55;;;;;;;-8.90;62.48;101849.20;1752865;81;20987;-92
2023/01/07 03:09:33;;;;;;;9.18;4.78;;;;;;;-8.86;62.87;101854.47;1752701;81;21244;-91
2023/01/07 03:12:24;;;;;;;7.12;3.55;;;;;;;-8.86;63.21;101868.44;1752529;82;20969;-90
2023/01/07 03:15:06;;;;;;;9.25;5.35;;;;;;;-8.85;63.30;101865.48;1767654;80;20911;-91
2023/01/07 03:17:42;;;;;;;9.38;4.67;;;;;;;-8.94;63.63;101864.72;1789711;80;20896;-90
2023/01/07 03:20:11;;;;;;;10.23;4.83;;;;;;;-8.98;64.17;101866.30;1790060;79;20932;-88
2023/01/07 03:22:38;;;;;;;9.40;5.85;;;;;;;-8.99;64.57;101880.20;1791035;80;21164;-89
2023/01/07 03:25:06;;;;;;;8.23;4.90;;;;;;;-9.06;63.94;101879.50;1789986;80;21514;-89
2023/01/07 03:27:35;;;;;;;9.58;5.50;;;;;;;-9.09;64.35;101873.00;1790185;80;21014;-90
2023/01/07 03:30:08;;;;;;;9.15;5.55;;;;;;;-9.07;64.30;101884.09;1789870;80;20892;-88
2023/01/07 03:32:41;;;;;;;8.70;4.75;;;;;;;-9.09;64.19;101880.25;1790142;80;20998;-88
2023/01/07 03:35:10;;;;;;;10.63;5.05;;;;;;;-9.10;64.23;101887.38;1785286;80;22527;-89
2023/01/07 03:37:40;;;;;;;6.05;4.17;;;;;;;-9.11;64.12;101880.95;1784542;80;20930;-91
2023/01/07 03:40:09;;;;;;;7.30;4.53;;;;;;;-9.10;64.28;101892.47;1784999;80;20987;-89
2023/01/07 03:42:41;;;;;;;9.95;5.35;;;;;;;-9.09;64.17;101903.48;1786391;80;20963;-88
2023/01/07 03:45:17;;;;;;;10.88;5.33;;;;;;;-9.06;64.43;101910.84;1784773;80;20829;-90
2023/01/07 03:47:50;;;;;;;8.85;5.15;;;;;;;-9.02;64.54;101911.85;1784148;80;21131;-89
2023/01/07 03:50:19;;;;;;;5.37;4.53;;;;;;;-8.99;64.65;101919.59;1783991;80;20896;-88
2023/01/07 03:52:49;;;;;;;7.12;4.65;;;;;;;-8.93;64.70;101927.47;1784190;80;20935;-89
2023/01/07 03:55:18;;;;;;;6.53;3.90;;;;;;;-8.89;64.58;101932.25;1785024;80;20975;-91
2023/01/07 03:57:45;;;;;;;8.38;4.53;;;;;;;-8.89;64.50;101933.14;1785497;80;20923;-90
2023/01/07 04:00:13;;;;;;;9.68;4.60;;;;;;;-8.83;64.62;101940.13;1784343;80;21298;-89
2023/01/07 04:02:46;;;;;;;9.48;5.72;;;;;;;-8.91;63.92;101929.67;1783535;80;20861;-89
2023/01/07 04:05:32;;;;;;;7.08;5.08;;;;;;;-9.05;63.88;101934.16;1785461;80;20916;-90
2023/01/07 04:08:04;;;;;;;9.45;5.17;;;;;;;-9.08;64.45;101933.19;1785067;80;20853;-90
2023/01/07 04:10:36;;;;;;;8.68;5.47;;;;;;;-9.05;64.58;101938.38;1785759;80;20872;-89
2023/01/07 04:13:07;;;;;;;13.58;5.37;;;;;;;-9.05;64.45;101938.38;1785338;80;20919;-90
2023/01/07 04:15:37;;;;;;;6.90;4.05;;;;;;;-9.06;64.29;101939.20;1785161;80;21413;-89
2023/01/07 04:18:04;;;;;;;11.03;5.65;;;;;;;-9.10;64.66;101937.34;1785435;80;20865;-88
2023/01/07 04:20:31;;;;;;;8.73;5.10;;;;;;;-9.04;64.76;101939.73;1785102;80;20932;-87
2023/01/07 04:23:00;;;;;;;10.53;5.05;;;;;;;-9.03;64.25;101945.27;1785654;80;20951;-90
2023/01/07 04:25:29;;;;;;;9.90;5.20;;;;;;;-9.05;64.04;101942.20;1785865;80;21296;-90
2023/01/07 04:27:56;;;;;;;7.40;4.58;;;;;;;-9.05;63.98;101951.09;1785916;80;21006;-89
2023/01/07 04:30:27;;;;;;;8.18;4.83;;;;;;;-9.01;63.76;101954.23;1786108;80;20973;-91
2023/01/07 04:32:54;;;;;;;6.30;4.40;;;;;;;-9.04;63.46;101961.33;1786193;80;20900;-91
2023/01/07 04:35:22;;;;;;;8.80;4.58;;;;;;;-9.10;63.42;101954.71;1786125;80;20927;-89
2023/01/07 04:37:50;;;;;;;7.45;4.28;;;;;;;-9.12;63.76;101961.40;1786566;80;21133;-86
2023/01/07 04:40:18;;;;;;;11.50;5.53;;;;;;;-9.07;63.82;101961.21;1786792;80;20896;-88
2023/01/07 04:42:45;;;;;;;9.15;5.05;;;;;;;-9.06;63.45;101968.42;1786823;79;20844;-87
2023/01/07 04:45:12;;;;;;;10.08;5.12;;;;;;;-9.08;63.43;101972.16;1786657;79;20935;-89
2023/01/07 04:47:41;;;;;;;9.15;4.47;;;;;;;-9.08;63.95;101975.97;1786800;80;21026;-87
2023/01/07 04:50:09;;;;;;;8.18;3.77;;;;;;;-9.01;63.88;101983.45;1787172;78;21229;-88
2023/01/07 04:52:37;;;;;;;8.50;4.33;;;;;;;-9.10;62.75;101985.61;1785055;80;21034;-91
2023/01/07 04:55:09;;;;;;;9.73;5.05;;;;;;;-9.26;62.60;101981.55;1754780;80;20876;-89
2023/01/07 04:57:40;;;;;;;8.90;5.20;;;;;;;-9.29;63.28;101981.03;1784871;80;20907;-90
2023/01/07 05:00:09;;;;;;;11.75;4.20;;;;;;;-9.28;63.25;101974.27;1786174;80;20995;-90
2023/01/07 05:02:38;;;;;;;8.25;5.03;;;;;;;-9.29;62.93;101979.76;1785593;80;20936;-92
2023/01/07 05:05:09;;;;;;;7.95;4.42;;;;;;;-9.31;63.00;101988.98;1785914;80;21254;-90
2023/01/07 05:07:37;;;;;;;7.67;4.53;;;;;;;-9.36;62.95;101986.63;1785894;80;20948;-90
2023/01/07 05:10:06;;;;;;;8.63;4.08;;;;;;;-9.42;62.78;101977.49;1786886;80;20895;-91
2023/01/07 05:12:36;;;;;;;6.12;3.70;;;;;;;-9.51;62.58;101992.33;1787250;78;20920;-88
2023/01/07 05:15:08;;;;;;;9.20;4.78;;;;;;;-9.65;62.39;101999.31;1787084;78;21202;-90
2023/01/07 05:17:38;;;;;;;5.70;3.75;;;;;;;-9.72;62.53;102010.00;1786947;78;20947;-91
2023/01/07 05:20:08;;;;;;;8.03;3.65;;;;;;;-9.73;62.70;102007.00;1781764;78;20978;-90
2023/01/07 05:22:39;;;;;;;6.47;4.22;;;;;;;-9.74;62.54;102006.11;1782621;80;21092;-88
2023/01/07 05:25:07;;;;;;;9.33;4.37;;;;;;;-9.75;62.68;102010.73;1756121;80;20971;-91
2023/01/07 05:27:36;;;;;;;4.83;3.95;;;;;;;-9.73;62.62;102018.02;1754700;80;21804;-91
2023/01/07 05:30:05;;;;;;;8.93;4.75;;;;;;;-9.77;62.40;102020.35;1780077;80;20884;-91
2023/01/07 05:32:31;;;;;;;7.55;4.40;;;;;;;-9.83;62.65;102020.92;1780203;80;20923;-90
2023/01/07 05:34:58;;;;;;;8.63;4.70;;;;;;;-9.84;62.65;102025.55;1779818;80;20908;-90
2023/01/07 05:37:25;;;;;;;6.37;4.55;;;;;;;-9.82;62.87;102029.89;1780154;80;20848;-89
2023/01/07 05:39:52;;;;;;;8.28;5.25;;;;;;;-9.77;63.09;102031.77;1780633;80;21224;-91
2023/01/07 05:42:19;;;;;;;7.90;4.12;;;;;;;-9.71;63.42;102035.45;1753989;80;20900;-90
2023/01/07 05:44:47;;;;;;;5.92;3.72;;;;;;;-9.59;63.22;102035.13;1780130;80;20998;-92
2023/01/07 05:47:13;;;;;;;8.98;4.08;;;;;;;-9.49;63.06;102049.09;1780213;80;20935;-90
2023/01/07 05:49:42;;;;;;;9.80;4.53;;;;;;;-9.40;62.98;102046.59;1780283;80;20890;-91
2023/01/07 05:52:09;;;;;;;8.53;4.80;;;;;;;-9.39;62.33;102043.64;1780717;80;21912;-91
2023/01/07 05:54:35;;;;;;;11.63;5.33;;;;;;;-9.46;62.34;102040.36;1781800;80;20931;-88
2023/01/07 05:57:03;;;;;;;10.85;4.90;;;;;;;-9.53;61.93;102046.84;1782080;80;20919;-89
2023/01/07 05:59:33;;;;;;;7.53;4.40;;;;;;;-9.61;62.19;102050.28;1781225;80;20892;-89
2023/01/07 06:02:03;;;;;;;6.40;3.98;;;;;;;-9.64;62.24;102051.83;1780733;80;20923;-90
2023/01/07 06:04:30;;;;;;;9.65;5.00;;;;;;;-9.68;62.58;102057.16;1754843;80;21249;-89
2023/01/07 06:06:58;;;;;;;9.33;5.35;;;;;;;-9.65;63.00;102051.34;1782183;80;20956;-90
2023/01/07 06:09:27;;;;;;;8.23;4.28;;;;;;;-9.65;63.25;102048.81;1782154;80;20919;-90
2023/01/07 06:11:56;;;;;;;8.00;4.90;;;;;;;-9.64;63.40;102052.70;1782697;80;20959;-88
2023/01/07 06:14:24;;;;;;;6.80;4.03;;;;;;;-9.64;63.81;102053.97;1756926;80;20943;-87
2023/01/07 06:16:54;;;;;;;8.98;4.47;;;;;;;-9.64;64.06;102069.61;1781920;80;20911;-89
2023/01/07 06:19:22;;;;;;;7.03;4.08;;;;;;;-9.61;64.22;102072.27;1780672;80;20872;-91
2023/01/07 06:21:50;;;;;;;6.83;3.98;;;;;;;-9.57;64.52;102070.34;1781179;80;20864;-90
2023/01/07 06:24:17;;;;;;;10.10;4.87;;;;;;;-9.46;64.71;102073.38;1780687;80;21093;-89
2023/01/07 06:26:46;;;;;;;7.95;5.05;;;;;;;-9.37;64.56;102071.25;1780834;80;21330;-90
2023/01/07 06:29:12;;;;;;;11.83;5.33;;;;;;;-9.40;64.16;102085.95;1780719;80;21548;-91
2023/01/07 06:31:42;;;;;;;8.63;4.37;;;;;;;-9.49;64.20;102085.53;1780436;80;21424;-91
2023/01/07 06:34:10;;;;;;;14.07;5.60;;;;;;;-9.57;64.34;102084.72;1780760;80;21448;-89
2023/01/07 06:36:38;;;;;;;11.45;5.45;;;;;;;-9.61;64.68;102080.75;1780677;80;20995;-92
2023/01/07 06:39:05;;;;;;;9.50;5.85;;;;;;;-9.56;64.81;102087.71;1780898;80;20863;-89
2023/01/07 06:41:33;;;;;;;6.97;4.78;;;;;;;-9.50;64.94;102085.05;1781674;80;20852;-90
2023/01/07 06:44:02;;;;;;;13.95;5.85;;;;;;;-9.41;65.48;102093.08;1779586;80;20907;-90
2023/01/07 06:46:29;;;;;;;9.73;5.15;;;;;;;-9.28;65.31;102092.38;1780499;80;21445;-89
2023/01/07 06:48:56;;;;;;;11.15;5.17;;;;;;;-9.14;65.36;102095.52;1780234;80;20888;-89
2023/01/07 06:51:23;;;;;;;7.35;4.25;;;;;;;-9.08;64.39;102104.28;1780405;80;20923;-90
2023/01/07 06:53:50;;;;;;;9.93;5.45;;;;;;;-9.14;64.28;102101.88;1780052;80;22091;-90
2023/01/07 06:56:16;;;;;;;11.48;5.33;;;;;;;-9.25;63.96;102112.45;1780107;80;20923;-90
2023/01/07 06:58:45;;;;;;;10.70;4.85;;;;;;;-9.34;63.95;102123.44;1780193;80;20845;-90
2023/01/07 07:01:12;;;;;;;13.13;5.47;;;;;;;-9.43;64.12;102120.07;1780260;80;20864;-91
2023/01/07 07:03:43;;;;;;;10.03;4.90;;;;;;;-9.46;64.53;102128.83;1780597;80;20872;-88
2023/01/07 07:06:11;;;;;;;10.05;4.80;;;;;;;-9.37;64.68;102118.64;1780526;80;21114;-90
2023/01/07 07:08:38;;;;;;;11.93;6.42;;;;;;;-9.34;64.22;102121.30;1780936;80;20983;-92
2023/01/07 07:11:07;;;;;;;11.63;5.20;;;;;;;-9.38;64.30;102120.31;1755058;80;20939;-90
2023/01/07 07:13:35;;;;;;;8.83;5.37;;;;;;;-9.33;64.60;102119.25;1755153;80;20903;-91
2023/01/07 07:16:02;;;;;;;11.12;5.85;;;;;;;-9.17;65.09;102121.67;1781406;80;20927;-89
2023/01/07 07:18:29;;;;;;;10.58;5.58;;;;;;;-9.09;63.96;102124.53;1781140;80;21774;-89
2023/01/07 07:20:57;;;;;;;13.05;6.72;;;;;;;-9.14;63.87;102129.82;1781419;80;21002;-90
2023/01/07 07:23:26;;;;;;;10.20;4.83;;;;;;;-9.09;64.05;102128.34;1782003;80;20891;-91
2023/01/07 07:25:54;;;;;;;13.85;6.67;;;;;;;-9.06;63.68;102137.39;1781470;80;20931;-91
2023/01/07 07:28:23;;;;;;;8.15;5.60;;;;;;;-9.10;64.03;102131.30;1781042;80;20837;-90
2023/01/07 07:30:50;;;;;;;10.70;5.30;;;;;;;-9.04;64.29;102130.30;1780703;80;21130;-91
2023/01/07 07:33:21;;;;;;;9.45;5.08;;;;;;;-8.93;63.91;102134.59;1780801;80;20932;-91
2023/01/07 07:35:49;;;;;;;10.45;5.85;;;;;;;-8.85;62.77;102133.23;1757706;80;20975;-91
2023/01/07 07:38:17;;;;;;;10.70;6.05;;;;;;;-8.85;62.51;102138.73;1781434;80;20864;-91
2023/01/07 07:40:46;;;;;;;6.85;4.58;;;;;;;-8.84;61.93;102146.43;1781279;80;20883;-90
2023/01/07 07:43:14;;;;;;;10.00;5.65;;;;;;;-8.85;61.45;102148.89;1781456;80;21162;-89
2023/01/07 07:45:41;;;;;;;7.60;3.87;;;;;;;-8.85;61.07;102154.84;1732502;80;21042;-90
2023/01/07 07:48:14;;;;;;;7.92;4.62;;;;;;;-8.84;60.67;102154.05;1781063;80;20931;-90
2023/01/07 07:50:40;;;;;;;7.87;4.75;;;;;;;-8.83;61.29;102158.73;1781175;80;20967;-90
2023/01/07 07:53:08;;;;;;;13.60;6.20;;;;;;;-8.75;61.05;102165.03;1781164;80;20911;-89
2023/01/07 07:55:40;;;;;;;14.03;6.78;;;;;;;-8.65;60.94;102170.10;1781204;80;21143;-90
2023/01/07 07:58:10;;;;;;;9.10;5.37;;;;;;;-8.62;60.44;102167.30;1781207;80;20900;-91
2023/01/07 08:00:36;;;;;;;9.78;5.53;;;;;;;-8.62;60.35;102175.34;1757506;80;21042;-91
2023/01/07 08:03:06;;;;;;;9.95;5.40;;;;;;;-8.63;60.24;102183.75;1781196;80;21396;-90
2023/01/07 08:05:44;;;;;;;9.98;6.15;;;;;;;-8.61;60.19;102188.51;1781794;80;20928;-91
2023/01/07 08:08:13;;;;;;;9.58;5.08;;;;;;;-8.57;60.42;102179.80;1782342;80;21872;-90
2023/01/07 08:10:41;;;;;;;9.05;4.83;;;;;;;-8.44;60.48;102179.08;1782655;80;20896;-91
2023/01/07 08:13:08;;;;;;;11.00;5.78;;;;;;;-8.35;59.46;102184.52;1781037;80;21447;-90
2023/01/07 08:15:39;;;;;;;11.08;5.35;;;;;;;-8.38;59.39;102183.99;1781184;80;20983;-91
2023/01/07 08:18:14;;;;;;;8.68;5.15;;;;;;;-8.43;58.54;102190.56;1781572;80;20875;-91
2023/01/07 08:20:41;;;;;;;7.47;4.72;;;;;;;-8.55;58.71;102186.23;1781177;80;21822;-90
2023/01/07 08:23:08;;;;;;;10.00;5.30;;;;;;;-8.56;58.67;102181.56;1780878;80;20994;-91
2023/01/07 08:25:37;;;;;;;11.48;6.10;;;;;;;-8.52;59.11;102176.59;1782127;80;20981;-90
2023/01/07 08:28:04;;;;;;;7.92;4.45;;;;;;;-8.45;59.16;102174.78;1782276;80;20959;-91
2023/01/07 08:30:32;;;;;;;7.37;4.95;;;;;;;-8.42;59.08;102173.66;1780881;80;20880;-89
2023/01/07 08:32:59;;;;;;;7.85;4.50;;;;;;;-8.36;58.34;102178.95;1781877;80;21270;-92
2023/01/07 08:35:28;;;;;;;9.73;4.95;;;;;;;-8.40;58.12;102182.22;1780252;80;21010;-91
2023/01/07 08:38:05;;;;;;;12.07;4.90;;;;;;;-8.38;58.64;102180.55;1780386;80;20919;-90
2023/01/07 08:40:32;;;;;;;9.75;4.90;;;;;;;-8.37;57.87;102185.72;1780462;80;21397;-91
2023/01/07 08:43:00;;;;;;;6.50;3.60;;;;;;;-8.39;58.03;102176.28;1780442;80;20928;-91
2023/01/07 08:45:29;;;;;;;9.95;4.67;;;;;;;-8.28;58.05;102184.38;1780210;80;21168;-91
2023/01/07 08:47:56;;;;;;;7.70;4.25;;;;;;;-8.25;57.70;102185.77;1780160;80;20987;-90
2023/01/07 08:50:25;;;;;;;9.03;4.45;;;;;;;-8.29;56.73;102186.06;1780204;80;20869;-90
2023/01/07 08:52:52;;;;;;;6.67;4.17;;;;;;;-8.37;55.93;102183.17;1780298;80;21065;-90
2023/01/07 08:55:20;;;;;;;8.43;4.80;;;;;;;-8.31;56.13;102189.31;1780070;80;20912;-91
2023/01/07 08:57:48;;;;;;;7.75;4.05;;;;;;;-8.28;56.14;102185.23;1779820;80;21907;-90
2023/01/07 09:00:15;;;;;;;8.70;4.53;;;;;;;-8.36;55.61;102183.66;1753936;80;20983;-91
2023/01/07 09:02:45;;;;;;;7.00;4.72;;;;;;;-8.48;56.01;102175.52;1779173;80;20900;-90
2023/01/07 09:05:12;;;;;;;11.05;4.83;;;;;;;-8.56;56.32;102177.75;1780461;80;20923;-91
2023/01/07 09:07:39;;;;;;;12.35;5.75;;;;;;;-8.55;55.95;102176.93;1780370;80;20923;-90
2023/01/07 09:10:07;;;;;;;7.95;4.45;;;;;;;-8.46;55.97;102173.05;1781675;80;21034;-89
2023/01/07 09:12:34;;;;;;;9.03;4.95;;;;;;;-8.49;56.02;102167.44;1782188;80;20916;-91
2023/01/07 09:15:00;;;;;;;8.15;4.53;;;;;;;-8.49;56.32;102166.17;1782057;80;21034;-90
2023/01/07 09:17:30;;;;;;;11.15;3.98;;;;;;;-8.42;56.25;102167.30;1782270;80;21095;-90
2023/01/07 09:20:02;;;;;;;9.28;5.58;;;;;;;-8.33;56.46;102162.56;1782611;80;20978;-91
2023/01/07 09:22:32;;;;;;;8.08;4.95;;;;;;;-8.25;56.43;102162.86;1781164;80;21089;-91
2023/01/07 09:24:59;;;;;;;11.78;4.75;;;;;;;-8.10;56.48;102161.37;1780662;80;20872;-92
2023/01/07 09:27:26;;;;;;;8.55;5.08;;;;;;;-7.96;56.70;102159.86;1757105;80;21034;-90
2023/01/07 09:29:57;;;;;;;9.25;4.67;;;;;;;-7.79;56.60;102158.39;1781257;80;20897;-92
2023/01/07 09:32:26;;;;;;;10.50;5.72;;;;;;;-7.71;56.13;102154.48;1780667;80;20919;-91
2023/01/07 09:34:52;;;;;;;11.28;5.03;;;;;;;-7.61;56.13;102149.33;1781282;80;21163;-90
2023/01/07 09:37:21;;;;;;;7.80;5.00;;;;;;;-7.51;55.74;102145.93;1782900;80;20865;-89
2023/01/07 09:39:48;;;;;;;8.98;4.70;;;;;;;-7.48;55.07;102147.72;1781775;80;20931;-90
2023/01/07 09:42:43;;;;;;;14.30;5.53;;;;;;;-7.55;54.47;102147.89;1781307;80;20903;-89
2023/01/07 09:45:21;;;;;;;8.38;5.08;;;;;;;-7.59;54.49;102147.72;1781993;80;21125;-91
2023/01/07 09:47:52;;;;;;;10.48;4.58;;;;;;;-7.59;54.41;102142.62;1781644;80;21144;-92
2023/01/07 09:50:47;;;;;;;11.15;4.53;;;;;;;-7.52;54.76;102139.48;1781265;80;21369;-92
2023/01/07 09:53:21;;;;;;;8.73;4.60;;;;;;;-7.42;54.28;102137.77;1778719;80;20931;-91
2023/01/07 09:55:51;;;;;;;8.23;5.45;;;;;;;-7.47;54.42;102135.84;1782731;80;20848;-90
2023/01/07 09:58:19;;;;;;;7.75;5.03;;;;;;;-7.45;54.98;102138.05;1782528;80;21017;-91
2023/01/07 10:01:27;;;;;;;8.28;4.70;;;;;;;-7.32;54.99;102133.88;1781460;80;21237;-90
2023/01/07 10:04:12;;;;;;;8.58;5.08;;;;;;;-7.34;54.53;102132.95;1781002;80;20907;-91
2023/01/07 10:07:33;;;;;;;7.75;5.08;;;;;;;-7.35;55.13;102127.41;1780689;80;21365;-91
2023/01/07 10:10:21;;;;;;;9.53;4.25;;;;;;;-7.24;54.23;102137.59;1780315;80;20967;-91
2023/01/07 10:13:44;;;;;;;8.50;4.80;;;;;;;-7.40;53.79;102133.98;1780483;80;21420;-93
2023/01/07 10:16:24;;;;;;;14.55;6.08;;;;;;;-7.62;53.88;102131.05;1751392;82;21316;-90
2023/01/07 10:19:11;;;;;;;10.35;6.20;;;;;;;-7.76;54.36;102127.56;1751035;82;20944;-89
2023/01/07 10:21:52;;;;;;;7.95;4.72;;;;;;;-7.77;54.83;102124.53;1750165;82;21012;-90
2023/01/07 10:24:30;;;;;;;6.80;5.37;;;;;;;-7.64;54.52;102128.84;1748430;81;21497;-89
2023/01/07 10:27:04;;;;;;;10.82;4.22;;;;;;;-7.54;53.78;102130.92;1748003;82;21050;-90
2023/01/07 10:29:44;;;;;;;8.15;4.65;;;;;;;-7.51;53.98;102127.23;1749048;81;21446;-90
2023/01/07 10:32:19;;;;;;;7.78;4.67;;;;;;;-7.42;54.03;102131.81;1659669;83;21405;-91
2023/01/07 10:34:50;;;;;;;10.98;5.55;;;;;;;-7.36;53.59;102127.82;1636998;87;20923;-90
2023/01/07 10:37:36;;;;;;;8.23;3.85;;;;;;;-7.32;53.49;102135.16;1637036;86;20948;-91
2023/01/07 10:40:32;;;;;;;6.22;3.62;;;;;;;-7.34;52.79;102140.19;1637032;86;20919;-90
2023/01/07 10:43:27;;;;;;;8.08;4.60;;;;;;;-7.41;52.90;102143.73;1637213;86;21445;-89
2023/01/07 10:46:17;;;;;;;5.97;3.35;;;;;;;-7.43;53.18;102139.84;1637169;87;21508;-92
2023/01/07 10:49:18;;;;;;;10.82;4.87;;;;;;;-7.41;52.71;102134.81;1636915;87;20916;-90
2023/01/07 10:51:56;;;;;;;7.00;3.90;;;;;;;-7.40;52.66;102143.80;1636995;86;20975;-92
2023/01/07 10:55:23;;;;;;;6.87;4.05;;;;;;;-7.26;52.14;102144.31;1636979;87;21050;-90
2023/01/07 10:58:04;;;;;;;6.40;3.95;;;;;;;-7.14;51.92;102140.92;1631361;88;21942;-90
2023/01/07 11:00:32;;;;;;;5.40;3.22;;;;;;;-6.99;51.55;102135.95;1639611;87;21119;-91
2023/01/07 11:03:00;;;;;;;5.15;3.70;;;;;;;-7.02;51.04;102137.12;1638913;87;20922;-90
2023/01/07 11:05:43;;;;;;;6.80;3.70;;;;;;;-7.09;50.83;102136.89;1673268;81;20976;-91
2023/01/07 11:08:33;;;;;;;10.63;4.50;;;;;;;-7.14;51.05;102130.73;1672807;79;20932;-89
2023/01/07 11:11:00;;;;;;;9.70;4.10;;;;;;;-7.11;51.01;102138.52;1697053;84;21370;-89
2023/01/07 11:13:29;;;;;;;7.45;4.12;;;;;;;-6.98;51.38;102146.21;1699346;84;20875;-88
2023/01/07 11:16:06;;;;;;;7.97;3.35;;;;;;;-6.82;51.36;102142.94;1706321;83;21006;-90
2023/01/07 11:18:36;;;;;;;6.20;4.05;;;;;;;-6.73;50.68;102143.27;1699257;84;20923;-90
2023/01/07 11:21:03;;;;;;;9.83;4.85;;;;;;;-6.80;50.66;102145.11;1672689;85;20994;-91
2023/01/07 11:23:39;;;;;;;7.33;3.98;;;;;;;-6.79;50.82;102144.31;1682911;84;21090;-91
2023/01/07 11:26:17;;;;;;;11.97;5.40;;;;;;;-6.71;51.00;102145.05;1706604;84;20934;-92
2023/01/07 11:28:51;;;;;;;9.40;5.30;;;;;;;-6.74;50.50;102142.37;1708217;82;20935;-92
2023/01/07 11:31:20;;;;;;;14.00;5.33;;;;;;;-6.76;50.70;102145.69;1709157;82;20864;-93
2023/01/07 11:34:33;;;;;;;6.85;3.85;;;;;;;-6.75;50.93;102140.65;1685081;82;20931;-92
2023/01/07 11:37:00;;;;;;;9.15;3.08;;;;;;;-6.72;49.96;102152.22;1604122;84;21425;-92
2023/01/07 11:39:47;;;;;;;7.67;3.72;;;;;;;-6.64;50.24;102155.48;1608793;88;20888;-90
2023/01/07 11:45:27;;;;;;;7.05;3.90;;;;;;;-6.53;49.86;102156.72;1493198;92;21400;-91
2023/01/07 11:48:09;;;;;;;12.13;4.55;;;;;;;-6.47;49.51;102162.91;1450194;95;21003;-92
2023/01/07 11:50:45;;;;;;;6.60;3.80;;;;;;;-6.46;49.57;102152.28;1450465;97;21202;-92
2023/01/07 11:53:20;;;;;;;8.23;3.70;;;;;;;-6.41;49.54;102147.33;1449348;95;21164;-91
2023/01/07 11:56:07;;;;;;;6.87;4.40;;;;;;;-6.34;49.71;102144.17;1450809;95;21089;-90
2023/01/07 11:58:51;;;;;;;3.95;3.17;;;;;;;-6.34;49.61;102150.55;1450543;98;20957;-92
2023/01/07 12:01:31;;;;;;;6.62;4.22;;;;;;;-6.51;49.18;102148.71;1455828;96;20958;-91
2023/01/07 12:04:10;;;;;;;6.70;3.72;;;;;;;-6.61;49.80;102150.05;1457595;97;21837;-90